createdAt,value
2019-03-16T00:00:05.704Z,3.30
2019-03-16T00:05:07.233Z,4.40
2019-03-16T00:10:09.452Z,4.37
2019-03-16T00:15:11.019Z,5.33
2019-03-16T00:20:12.392Z,5.37
2019-03-16T00:25:13.828Z,6.30
2019-03-16T00:30:15.259Z,6.50
2019-03-16T00:35:16.802Z,4.65
2019-03-16T00:40:18.419Z,5.67
2019-03-16T00:45:19.956Z,4.65
2019-03-16T00:50:21.365Z,5.95
2019-03-16T00:55:22.736Z,5.12
2019-03-16T01:00:25.063Z,5.05
2019-03-16T01:05:26.478Z,5.20
2019-03-16T01:10:28.283Z,4.83
2019-03-16T01:15:29.826Z,4.83
2019-03-16T01:20:31.276Z,4.28
2019-03-16T01:25:32.737Z,4.00
2019-03-16T01:30:34.239Z,3.90
2019-03-16T01:35:35.671Z,3.92
2019-03-16T01:40:37.068Z,3.60
2019-03-16T01:45:38.397Z,3.12
2019-03-16T01:50:39.707Z,3.30
2019-03-16T01:55:41.134Z,3.08
2019-03-16T02:00:42.876Z,2.50
2019-03-16T02:05:44.338Z,2.67
2019-03-16T02:10:48.391Z,2.62
2019-03-16T02:15:49.766Z,3.52
2019-03-16T02:20:51.496Z,2.65
2019-03-16T02:25:52.851Z,2.35
2019-03-16T02:30:54.203Z,2.22
2019-03-16T02:35:55.508Z,2.20
2019-03-16T02:40:56.868Z,2.75
2019-03-16T02:45:58.261Z,1.95
2019-03-16T02:51:00.673Z,2.95
2019-03-16T02:56:02.533Z,3.22
2019-03-16T03:01:04.052Z,2.58
2019-03-16T03:06:05.429Z,2.60
2019-03-16T03:11:08.297Z,3.15
2019-03-16T03:16:09.587Z,2.52
2019-03-16T03:21:11.160Z,3.25
2019-03-16T03:26:12.477Z,2.77
2019-03-16T03:31:15.671Z,3.17
2019-03-16T03:36:17.090Z,3.10
2019-03-16T03:41:20.351Z,3.62
2019-03-16T03:46:21.647Z,4.08
2019-03-16T03:51:23.254Z,3.77
2019-03-16T03:56:24.760Z,4.50
2019-03-16T04:01:26.760Z,5.12
2019-03-16T04:06:28.602Z,4.47
2019-03-16T04:11:31.315Z,4.72
2019-03-16T04:16:32.688Z,5.37
2019-03-16T04:21:36.217Z,6.00
2019-03-16T04:26:37.501Z,5.95
2019-03-16T04:31:39.340Z,7.20
2019-03-16T04:36:40.744Z,7.45
2019-03-16T04:41:44.848Z,10.35
2019-03-16T04:46:46.485Z,10.82
2019-03-16T04:51:47.941Z,13.55
2019-03-16T04:56:49.529Z,13.43
2019-03-16T05:01:52.209Z,13.93
2019-03-16T05:06:53.630Z,16.67
2019-03-16T05:11:55.136Z,19.45
2019-03-16T05:16:56.527Z,22.00
2019-03-16T05:21:57.857Z,21.70
2019-03-16T05:26:59.468Z,23.42
2019-03-16T05:32:00.847Z,25.20
2019-03-16T05:37:04.183Z,25.37
2019-03-16T05:42:06.030Z,25.08
2019-03-16T05:47:09.242Z,25.52
2019-03-16T05:52:10.650Z,24.63
2019-03-16T05:57:12.120Z,17.35
2019-03-16T06:02:13.559Z,9.58
2019-03-16T06:07:14.965Z,8.53
2019-03-16T06:12:16.523Z,8.13
2019-03-16T06:17:17.905Z,11.00
2019-03-16T06:22:20.503Z,9.15
2019-03-16T06:27:21.925Z,9.30
2019-03-16T06:32:23.226Z,8.05
2019-03-16T06:37:25.008Z,8.83
2019-03-16T06:42:26.370Z,9.83
2019-03-16T06:47:27.896Z,9.78
2019-03-16T06:52:29.846Z,11.33
2019-03-16T06:57:31.194Z,10.48
2019-03-16T07:02:33.087Z,12.35
2019-03-16T07:07:34.563Z,10.43
2019-03-16T07:12:35.951Z,9.60
2019-03-16T07:17:37.620Z,10.45
2019-03-16T07:22:39.119Z,12.82
2019-03-16T07:27:40.544Z,16.07
2019-03-16T07:32:41.969Z,15.00
2019-03-16T07:37:44.523Z,19.35
2019-03-16T07:42:46.163Z,17.48
2019-03-16T07:47:48.042Z,14.18
2019-03-16T07:52:49.560Z,12.68
2019-03-16T07:57:50.991Z,10.50
2019-03-16T08:02:52.891Z,11.15
2019-03-16T08:07:55.029Z,9.20
2019-03-16T08:12:56.827Z,9.38
2019-03-16T08:17:58.595Z,8.18
2019-03-16T08:22:59.879Z,7.50
2019-03-16T08:28:02.276Z,6.50
2019-03-16T08:33:03.945Z,5.58
2019-03-16T08:38:05.724Z,5.83
2019-03-16T08:43:09.382Z,5.72
2019-03-16T08:48:22.144Z,6.78
2019-03-16T08:53:15.168Z,6.00
2019-03-16T08:58:16.625Z,5.83
2019-03-16T09:03:19.700Z,6.95
2019-03-16T09:08:21.019Z,7.20
2019-03-16T09:13:22.361Z,6.30
2019-03-16T09:18:24.164Z,6.25
2019-03-16T09:23:25.554Z,6.10
2019-03-16T09:28:26.958Z,4.30
2019-03-16T09:33:28.447Z,3.85
2019-03-16T09:38:29.807Z,3.37
2019-03-16T09:43:31.818Z,2.72
2019-03-16T09:48:33.229Z,2.60
2019-03-16T09:53:34.596Z,3.00
2019-03-16T09:58:35.916Z,2.10
2019-03-16T10:03:37.520Z,2.10
2019-03-16T10:08:40.811Z,3.00
2019-03-16T10:13:42.251Z,3.30
2019-03-16T10:18:43.608Z,2.67
2019-03-16T10:23:46.416Z,2.90
2019-03-16T10:28:51.350Z,3.30
2019-03-16T10:33:54.622Z,3.20
2019-03-16T10:38:56.238Z,3.08
2019-03-16T10:44:16.279Z,3.70
2019-03-16T10:49:19.962Z,2.98
2019-03-16T10:54:21.344Z,2.70
2019-03-16T10:59:23.830Z,3.08
2019-03-16T11:04:25.559Z,2.47
2019-03-16T11:09:27.039Z,2.60
2019-03-16T11:14:28.392Z,3.27
2019-03-16T11:19:30.046Z,3.55
2019-03-16T11:24:31.600Z,2.87
2019-03-16T11:29:33.294Z,3.08
2019-03-16T11:34:34.914Z,3.45
2019-03-16T11:39:36.642Z,3.42
2019-03-16T11:44:37.928Z,1.80
2019-03-16T11:49:39.479Z,3.10
2019-03-16T11:54:40.807Z,3.02
2019-03-16T11:59:42.356Z,2.33
2019-03-16T12:04:43.781Z,1.90
2019-03-16T12:09:45.080Z,1.70
2019-03-16T12:14:46.534Z,1.85
2019-03-16T12:19:48.458Z,1.90
2019-03-16T12:24:51.117Z,1.62
2019-03-16T12:29:52.550Z,1.47
2019-03-16T12:34:54.041Z,1.40
2019-03-16T12:39:55.654Z,1.20
2019-03-16T12:44:58.113Z,1.25
2019-03-16T12:49:59.676Z,0.90
2019-03-16T12:55:01.071Z,1.00
2019-03-16T13:00:16.138Z,0.90
2019-03-16T13:05:17.843Z,0.90
2019-03-16T13:10:22.724Z,0.93
2019-03-16T13:15:24.034Z,1.25
2019-03-16T13:20:25.818Z,1.00
2019-03-16T13:25:27.498Z,1.10
2019-03-16T13:30:28.844Z,1.05
2019-03-16T13:35:30.421Z,1.17
2019-03-16T13:40:31.720Z,1.25
2019-03-16T13:45:33.417Z,1.07
2019-03-16T13:50:53.681Z,1.55
2019-03-16T13:55:54.970Z,1.45
2019-03-16T14:00:56.305Z,1.80
2019-03-16T14:05:57.603Z,1.47
2019-03-16T14:10:59.010Z,1.55
2019-03-16T14:16:00.955Z,1.40
2019-03-16T14:21:02.599Z,1.62
2019-03-16T14:26:06.101Z,1.37
2019-03-16T14:31:07.384Z,1.87
2019-03-16T14:36:08.758Z,1.50
2019-03-16T14:41:12.316Z,1.98
2019-03-16T14:46:15.018Z,1.57
2019-03-16T14:51:16.521Z,2.15
2019-03-16T14:56:17.835Z,2.00
2019-03-16T15:01:19.433Z,1.72
2019-03-16T15:06:24.246Z,1.87
2019-03-16T15:11:25.768Z,1.90
2019-03-16T15:16:27.140Z,1.70
2019-03-16T15:21:28.630Z,2.15
2019-03-16T15:26:30.047Z,2.02
2019-03-16T15:31:31.499Z,1.60
2019-03-16T15:36:32.963Z,2.20
2019-03-16T15:41:34.512Z,2.00
2019-03-16T15:46:36.197Z,2.58
2019-03-16T15:51:38.353Z,2.20
2019-03-16T15:56:39.964Z,2.60
2019-03-16T16:01:41.509Z,2.35
2019-03-16T16:06:44.096Z,2.77
2019-03-16T16:11:45.538Z,2.42
2019-03-16T16:16:47.173Z,2.98
2019-03-16T16:21:48.639Z,2.35
2019-03-16T16:26:49.957Z,2.75
2019-03-16T16:31:51.237Z,2.90
2019-03-16T16:36:52.683Z,3.50
2019-03-16T16:41:54.199Z,3.45
2019-03-16T16:46:57.318Z,3.37
2019-03-16T16:51:58.616Z,3.90
2019-03-16T16:56:59.979Z,3.60
2019-03-16T17:02:01.522Z,4.10
2019-03-16T17:07:02.982Z,3.60
2019-03-16T17:12:04.829Z,3.85
2019-03-16T17:17:34.555Z,3.30
2019-03-16T17:22:28.133Z,3.40
2019-03-16T17:27:29.443Z,3.25
2019-03-16T17:32:30.951Z,3.08
2019-03-16T17:37:32.279Z,3.35
2019-03-16T17:42:33.666Z,3.15
2019-03-16T17:47:34.964Z,2.98
2019-03-16T17:52:36.406Z,3.08
2019-03-16T17:57:45.088Z,2.55
2019-03-16T18:02:52.820Z,3.05
2019-03-16T18:07:55.040Z,3.10
2019-03-16T18:12:56.340Z,3.17
2019-03-16T18:18:01.655Z,3.15
2019-03-16T18:23:03.303Z,2.77
2019-03-16T18:28:04.715Z,2.98
2019-03-16T18:33:06.137Z,2.87
2019-03-16T18:38:07.575Z,2.95
2019-03-16T18:43:27.605Z,2.77
2019-03-16T18:48:30.391Z,2.95
2019-03-16T18:53:32.168Z,3.55
2019-03-16T18:59:47.722Z,3.27
2019-03-16T19:03:37.127Z,3.45
2019-03-16T19:08:39.053Z,3.60
2019-03-16T19:13:40.455Z,3.50
2019-03-16T19:18:41.865Z,3.65
2019-03-16T19:23:43.432Z,3.72
2019-03-16T19:28:46.709Z,4.00
2019-03-16T19:33:48.200Z,5.00
2019-03-16T19:38:49.518Z,4.47
2019-03-16T19:43:50.888Z,4.25
2019-03-16T19:48:52.506Z,4.70
2019-03-16T19:53:56.040Z,4.58
2019-03-16T19:59:00.880Z,6.37
2019-03-16T20:04:02.966Z,5.70
2019-03-16T20:09:05.727Z,5.33
2019-03-16T20:19:27.292Z,4.85
2019-03-16T20:24:29.639Z,5.50
2019-03-16T20:29:31.110Z,6.15
2019-03-16T20:34:32.575Z,5.90
2019-03-16T20:39:34.088Z,6.22
2019-03-16T20:44:36.512Z,5.28
2019-03-16T20:49:38.017Z,5.50
2019-03-16T20:54:41.268Z,6.40
2019-03-16T20:59:43.539Z,6.58
2019-03-16T21:04:46.659Z,7.03
2019-03-16T21:09:48.263Z,6.62
2019-03-16T21:14:51.631Z,6.05
2019-03-16T21:19:53.181Z,5.97
2019-03-16T21:24:54.576Z,7.65
2019-03-16T21:29:56.039Z,6.35
2019-03-16T21:34:57.835Z,7.33
2019-03-16T21:39:59.214Z,5.83
2019-03-16T21:45:13.814Z,5.78
2019-03-16T21:50:15.905Z,5.90
2019-03-16T21:55:17.942Z,6.33
2019-03-16T22:00:20.688Z,6.45
2019-03-16T22:05:40.925Z,6.58
2019-03-16T22:10:43.417Z,6.90
2019-03-16T22:15:49.353Z,7.05
2019-03-16T22:20:52.732Z,7.87
2019-03-16T22:25:56.270Z,6.55
2019-03-16T22:30:57.568Z,7.58
2019-03-16T22:35:58.959Z,7.83
2019-03-16T22:41:00.308Z,7.25
2019-03-16T22:46:01.714Z,7.72
2019-03-16T22:51:03.352Z,6.87
2019-03-16T22:56:05.073Z,7.30
2019-03-16T23:01:06.796Z,6.67
2019-03-16T23:06:08.267Z,5.87
2019-03-16T23:11:10.730Z,5.20
2019-03-16T23:16:12.092Z,5.20
2019-03-16T23:21:13.705Z,4.72
2019-03-16T23:26:15.127Z,4.53
2019-03-16T23:31:16.769Z,4.05
2019-03-16T23:36:18.237Z,4.03
2019-03-16T23:41:19.631Z,4.35
2019-03-16T23:46:20.961Z,3.70
2019-03-16T23:51:22.335Z,3.55
2019-03-16T23:56:23.774Z,3.55
